Time;durP1;ratioP1;P1;durP2;ratioP2;P2;SDS_P1;SDS_P2;PMS_P1;PMS_P2;Temp;Humidity;BMP_temperature;BMP_pressure;BME280_temperature;BME280_humidity;BME280_pressure;Samples;Min_cycle;Max_cycle;Signal;HPM_P1;HPM_P2
2021/12/17 00:03:39;;;;;;;16.82;6.97;;;;;;;4.52;83.68;101611.92;3520496;78;20958;-72
2021/12/17 00:08:28;;;;;;;18.77;7.25;;;;;;;4.50;83.71;101617.39;3513825;79;20948;-72
2021/12/17 00:13:20;;;;;;;16.45;7.22;;;;;;;4.49;83.67;101613.06;3514526;79;20928;-72
2021/12/17 00:18:20;;;;;;;21.05;6.40;;;;;;;4.49;83.67;101620.79;3502785;78;20983;-71
2021/12/17 00:48:53;;;;;;;18.67;5.67;;;;;;;4.41;83.49;101620.75;3546601;79;20999;-72
2021/12/17 00:53:44;;;;;;;20.68;7.72;;;;;;;4.40;83.53;101635.73;3485761;79;21500;-72
2021/12/17 00:58:36;;;;;;;16.62;6.40;;;;;;;4.38;83.46;101629.58;3540417;79;21030;-72
2021/12/17 01:03:27;;;;;;;16.48;5.90;;;;;;;4.35;83.41;101616.14;3550376;79;20924;-72
2021/12/17 01:08:19;;;;;;;19.60;7.55;;;;;;;4.30;83.47;101620.55;3505302;79;21073;-72
2021/12/17 01:13:12;;;;;;;21.10;6.97;;;;;;;4.28;83.49;101609.28;3487151;79;20947;-72
2021/12/17 01:18:11;;;;;;;17.30;6.90;;;;;;;4.26;83.56;101595.44;3512435;79;20998;-72
2021/12/17 01:43:53;;;;;;;18.60;6.10;;;;;;;4.10;83.81;101612.57;3371070;83;20960;-71
2021/12/17 01:59:31;;;;;;;18.57;5.58;;;;;;;4.18;83.83;101622.89;3365382;83;21298;-72
2021/12/17 02:04:16;;;;;;;16.95;5.45;;;;;;;4.21;83.79;101623.48;3398353;83;20968;-71
2021/12/17 02:09:45;;;;;;;16.00;4.90;;;;;;;4.24;83.81;101613.74;3509600;78;20963;-72
2021/12/17 02:19:45;;;;;;;17.62;4.22;;;;;;;4.29;83.71;101596.88;3518215;78;20999;-71
2021/12/17 02:30:02;;;;;;;12.25;4.45;;;;;;;4.30;83.61;101585.38;3499224;79;20943;-73
2021/12/17 02:49:44;;;;;;;12.50;4.65;;;;;;;4.31;83.29;101568.23;3484255;79;20940;-72
2021/12/17 02:54:36;;;;;;;16.02;5.58;;;;;;;4.32;83.32;101565.75;3510798;79;20983;-72
2021/12/17 02:59:29;;;;;;;19.10;5.78;;;;;;;4.32;83.08;101564.88;3522939;79;20905;-72
2021/12/17 03:04:20;;;;;;;14.28;4.10;;;;;;;4.32;83.08;101572.60;3475975;78;20979;-71
2021/12/17 03:09:12;;;;;;;9.60;4.17;;;;;;;4.32;83.08;101563.59;3514476;79;22152;-72
2021/12/17 03:14:03;;;;;;;12.68;4.45;;;;;;;4.32;83.00;101563.18;3473383;79;21525;-72
2021/12/17 03:19:12;;;;;;;9.75;4.53;;;;;;;4.33;82.98;101561.52;3516721;78;20932;-71
2021/12/17 03:23:57;;;;;;;14.28;4.72;;;;;;;4.32;82.84;101554.58;3535513;78;20972;-72
2021/12/17 03:28:55;;;;;;;11.90;3.90;;;;;;;4.32;82.85;101549.43;3522950;78;20939;-72
2021/12/17 03:33:50;;;;;;;17.48;5.65;;;;;;;4.31;82.79;101555.36;3551802;78;20943;-71
2021/12/17 03:38:46;;;;;;;17.90;5.20;;;;;;;4.30;82.84;101558.77;3543679;78;21227;-72
2021/12/17 03:43:38;;;;;;;13.72;4.37;;;;;;;4.29;82.72;101549.25;3460029;78;20943;-73
2021/12/17 03:48:32;;;;;;;12.78;5.35;;;;;;;4.28;82.67;101547.49;3515231;78;20986;-72
2021/12/17 03:53:25;;;;;;;19.30;4.60;;;;;;;4.26;82.65;101547.81;3516900;78;20995;-72
2021/12/17 03:58:17;;;;;;;14.07;4.55;;;;;;;4.26;82.71;101538.80;3525435;79;21150;-72
2021/12/17 04:03:09;;;;;;;9.03;4.53;;;;;;;4.23;82.65;101522.77;3475176;78;21868;-72
2021/12/17 04:08:02;;;;;;;16.05;5.10;;;;;;;4.23;82.56;101520.61;3512380;79;21527;-72
2021/12/17 04:18:15;;;;;;;12.03;4.60;;;;;;;4.19;82.58;101535.88;3390333;83;20937;-72
2021/12/17 04:23:06;;;;;;;11.73;4.30;;;;;;;4.18;82.51;101520.34;3312256;83;21539;-72
2021/12/17 04:27:59;;;;;;;13.58;6.75;;;;;;;4.19;82.45;101526.86;3392116;83;22058;-72
2021/12/17 04:32:52;;;;;;;11.18;4.40;;;;;;;4.20;82.50;101529.94;3364125;82;21096;-71
2021/12/17 04:37:43;;;;;;;10.80;3.92;;;;;;;4.19;82.22;101525.58;3372641;83;21172;-72
2021/12/17 04:58:02;;;;;;;14.98;6.08;;;;;;;4.11;82.07;101540.97;3492337;78;21468;-72
2021/12/17 05:02:57;;;;;;;16.57;6.22;;;;;;;4.12;82.13;101546.63;3452126;78;21448;-72
2021/12/17 05:08:00;;;;;;;20.08;6.20;;;;;;;4.11;82.08;101549.98;3489591;78;21143;-72
2021/12/17 05:23:10;;;;;;;15.72;5.95;;;;;;;4.07;82.17;101587.94;3526567;78;21497;-72
2021/12/17 05:28:02;;;;;;;15.98;5.45;;;;;;;4.03;82.03;101597.58;3491025;79;20928;-72
2021/12/17 05:32:57;;;;;;;22.00;7.00;;;;;;;4.00;82.09;101600.84;3529268;78;21083;-72
2021/12/17 05:37:48;;;;;;;11.88;5.58;;;;;;;3.99;82.17;101593.94;3488649;79;20971;-72
2021/12/17 05:42:41;;;;;;;15.75;6.00;;;;;;;4.02;82.29;101588.06;3485334;79;22642;-71
2021/12/17 05:47:43;;;;;;;13.90;6.15;;;;;;;4.01;82.22;101583.74;3531157;78;20975;-72
2021/12/17 05:52:34;;;;;;;18.45;6.08;;;;;;;3.98;82.15;101578.41;3527867;78;20983;-72
2021/12/17 05:57:26;;;;;;;14.93;6.42;;;;;;;3.95;82.18;101569.22;3509157;78;20995;-71
2021/12/17 06:02:19;;;;;;;17.15;7.60;;;;;;;3.93;82.23;101569.53;3477864;78;22083;-72
2021/12/17 06:07:12;;;;;;;21.90;7.40;;;;;;;3.91;82.24;101567.28;3473368;78;21200;-72
2021/12/17 06:12:06;;;;;;;15.85;6.17;;;;;;;3.92;82.34;101571.64;3498618;78;20992;-73
2021/12/17 06:16:58;;;;;;;13.72;6.90;;;;;;;3.94;82.25;101581.61;3527145;78;20920;-72
2021/12/17 06:21:51;;;;;;;12.10;5.60;;;;;;;3.92;82.20;101580.23;3540743;78;21010;-72
2021/12/17 06:26:42;;;;;;;15.23;6.35;;;;;;;3.91;82.12;101578.86;3515228;79;20920;-71
2021/12/17 06:31:33;;;;;;;12.00;7.35;;;;;;;3.89;82.08;101580.45;3510148;78;21079;-72
2021/12/17 06:36:25;;;;;;;12.73;5.30;;;;;;;3.88;81.96;101574.44;3510136;78;20959;-72
2021/12/17 06:41:16;;;;;;;18.32;6.05;;;;;;;3.88;81.89;101570.95;3563930;78;21416;-72
2021/12/17 07:17:31;;;;;;;17.80;6.33;;;;;;;3.84;82.05;101584.45;3552247;79;20928;-72
2021/12/17 07:21:58;;;;;;;16.62;7.28;;;;;;;3.83;81.95;101587.42;3545523;78;21197;-72
2021/12/17 07:38:37;;;;;;;16.35;7.20;;;;;;;3.87;81.98;101594.92;3555489;78;20943;-72
2021/12/17 07:41:51;;;;;;;17.12;6.53;;;;;;;3.90;82.06;101606.66;3543799;78;21117;-71
2021/12/17 07:47:01;;;;;;;16.82;6.10;;;;;;;3.92;81.84;101615.38;3493124;78;21596;-72
2021/12/17 07:51:53;;;;;;;18.05;6.95;;;;;;;3.89;81.77;101608.77;3521639;78;21086;-72
2021/12/17 07:56:45;;;;;;;15.48;7.35;;;;;;;3.86;81.83;101611.14;3556366;78;20927;-72
2021/12/17 08:01:39;;;;;;;30.60;14.85;;;;;;;3.90;81.90;101606.66;3522108;78;20957;-72
2021/12/17 08:06:32;;;;;;;15.00;8.50;;;;;;;3.90;81.72;101614.00;3549682;78;21015;-72
2021/12/17 08:11:28;;;;;;;14.78;7.55;;;;;;;3.92;81.63;101632.10;3495107;78;21528;-71
2021/12/17 08:26:42;;;;;;;11.78;6.40;;;;;;;3.92;81.50;101650.11;3509958;78;20117;-71
2021/12/17 08:31:21;;;;;;;14.35;6.80;;;;;;;3.94;81.55;101651.09;3499011;78;20920;-72
2021/12/17 08:36:15;;;;;;;14.15;6.53;;;;;;;3.94;81.55;101659.69;3563965;78;22098;-72
2021/12/17 08:41:06;;;;;;;14.90;6.15;;;;;;;3.94;81.62;101663.55;3527169;79;20955;-72
2021/12/17 08:45:57;;;;;;;14.43;7.30;;;;;;;3.94;81.48;101661.38;3467685;78;20888;-71
2021/12/17 08:51:09;;;;;;;18.50;5.45;;;;;;;3.92;81.39;101666.84;3362293;82;21070;-71
2021/12/17 08:56:04;;;;;;;17.30;5.28;;;;;;;3.92;81.29;101661.28;3395897;82;20964;-72
2021/12/17 09:00:56;;;;;;;10.85;5.50;;;;;;;3.93;81.29;101650.58;3366769;82;21102;-72
2021/12/17 09:05:49;;;;;;;12.78;6.12;;;;;;;3.99;81.29;101638.09;3410443;82;21164;-71
2021/12/17 09:10:48;;;;;;;9.25;5.22;;;;;;;4.11;81.22;101629.77;3379801;82;21473;-72
2021/12/17 09:15:40;;;;;;;6.50;4.00;;;;;;;4.22;80.98;101614.06;3360220;82;20999;-73
2021/12/17 09:20:33;;;;;;;11.03;5.15;;;;;;;4.37;80.77;101599.50;3353371;82;21051;-73
2021/12/17 09:25:26;;;;;;;8.75;4.92;;;;;;;4.46;80.58;101612.87;3443248;79;21134;-71
2021/12/17 09:30:20;;;;;;;9.55;4.67;;;;;;;4.51;80.75;101608.88;3547895;78;20948;-75
2021/12/17 09:35:13;;;;;;;9.25;5.70;;;;;;;4.53;80.46;101616.28;3492065;78;21576;-74
2021/12/17 09:40:08;;;;;;;12.47;6.22;;;;;;;4.49;80.38;101613.06;3484237;79;21236;-75
2021/12/17 09:45:00;;;;;;;13.85;7.28;;;;;;;4.53;80.80;101617.58;3518349;78;20959;-76
2021/12/17 09:49:55;;;;;;;12.40;6.90;;;;;;;4.55;80.71;101619.83;3493130;78;21075;-75
2021/12/17 09:54:47;;;;;;;9.45;5.70;;;;;;;4.55;80.66;101617.66;3518998;78;20955;-75
2021/12/17 09:59:39;;;;;;;11.70;6.67;;;;;;;4.54;80.71;101611.63;3520191;78;20876;-74
2021/12/17 10:04:31;;;;;;;13.78;6.42;;;;;;;4.59;80.69;101623.46;3468510;78;20877;-74
2021/12/17 10:09:28;;;;;;;15.50;6.78;;;;;;;4.73;80.29;101617.80;3507867;78;20961;-71
2021/12/17 10:14:24;;;;;;;13.87;6.17;;;;;;;4.72;80.36;101621.16;3513749;78;21426;-73
2021/12/17 10:19:44;;;;;;;10.55;5.80;;;;;;;4.79;80.24;101618.11;3488856;78;21394;-72
2021/12/17 10:24:36;;;;;;;11.88;6.25;;;;;;;4.89;80.12;101610.09;3532120;79;20913;-71
2021/12/17 10:29:28;;;;;;;15.10;7.12;;;;;;;5.06;79.99;101597.22;3480596;80;20948;-74
2021/12/17 10:34:19;;;;;;;14.85;7.28;;;;;;;5.21;79.76;101591.60;3451583;78;20993;-76
2021/12/17 10:39:29;;;;;;;17.70;6.90;;;;;;;5.27;79.65;101593.20;3504468;78;20948;-78
2021/12/17 10:44:21;;;;;;;10.60;4.75;;;;;;;5.29;79.41;101583.88;3533680;78;21203;-77
2021/12/17 10:49:17;;;;;;;9.25;5.95;;;;;;;5.26;79.12;101583.70;3498917;78;20956;-78
2021/12/17 10:54:10;;;;;;;11.57;6.25;;;;;;;5.21;79.48;101592.02;3440232;78;21059;-74
2021/12/17 10:59:15;;;;;;;13.88;6.67;;;;;;;5.13;79.66;101586.43;3485526;78;20964;-72
2021/12/17 11:04:14;;;;;;;15.60;6.70;;;;;;;5.08;79.45;101594.31;3505013;78;21170;-72
2021/12/17 11:09:05;;;;;;;16.35;7.28;;;;;;;5.01;79.66;101587.06;3518111;78;21126;-72
2021/12/17 11:13:57;;;;;;;14.18;6.25;;;;;;;5.02;79.63;101584.98;3479513;79;20900;-74
2021/12/17 11:18:49;;;;;;;11.63;6.67;;;;;;;5.10;79.57;101575.56;3470463;79;20944;-72
2021/12/17 11:23:41;;;;;;;16.42;7.28;;;;;;;5.12;79.43;101580.81;3478796;79;20920;-72
2021/12/17 11:28:32;;;;;;;9.38;6.08;;;;;;;5.16;79.29;101564.27;3475403;80;21179;-76
2021/12/17 11:33:23;;;;;;;11.45;6.60;;;;;;;5.28;79.29;101563.16;3429675;80;21465;-73
2021/12/17 11:38:44;;;;;;;10.58;4.62;;;;;;;5.31;79.27;101562.02;3467477;80;20923;-72
2021/12/17 11:43:57;;;;;;;10.93;5.70;;;;;;;5.41;78.81;101558.23;3302724;85;20956;-73
2021/12/17 11:48:55;;;;;;;14.68;6.72;;;;;;;5.29;78.97;101563.25;3229400;86;21067;-71
2021/12/17 11:54:06;;;;;;;11.25;5.60;;;;;;;5.22;79.02;101558.55;3270518;85;21035;-73
2021/12/17 11:58:57;;;;;;;9.88;5.60;;;;;;;5.25;78.80;101552.27;3244031;85;21010;-74
2021/12/17 12:03:48;;;;;;;13.43;6.05;;;;;;;5.24;78.72;101551.81;3246125;85;21121;-74
2021/12/17 12:08:50;;;;;;;12.13;6.10;;;;;;;5.30;78.94;101557.27;3237050;85;21532;-76
2021/12/17 12:13:45;;;;;;;8.43;4.95;;;;;;;5.35;78.98;101545.91;3270270;85;21136;-77
2021/12/17 12:18:44;;;;;;;11.87;5.77;;;;;;;5.38;78.70;101544.75;3379648;81;21188;-80
2021/12/17 12:23:40;;;;;;;10.58;5.97;;;;;;;5.40;78.77;101538.39;3400642;81;21023;-73
2021/12/17 12:28:49;;;;;;;11.00;5.05;;;;;;;5.37;78.75;101539.55;3412357;81;20974;-74
2021/12/17 12:34:06;;;;;;;12.23;5.40;;;;;;;5.28;78.63;101534.80;3401547;81;20997;-75
2021/12/17 12:39:41;;;;;;;9.10;6.67;;;;;;;5.25;78.69;101526.89;3409192;81;21389;-75
2021/12/17 12:44:44;;;;;;;10.18;4.67;;;;;;;5.24;78.74;101514.42;3439325;81;21037;-75
2021/12/17 12:49:51;;;;;;;8.28;3.70;;;;;;;5.22;78.72;101522.45;3434913;81;21008;-76
2021/12/17 12:54:46;;;;;;;8.20;4.75;;;;;;;5.13;78.83;101531.91;3362764;81;20947;-76
2021/12/17 12:59:40;;;;;;;9.10;4.35;;;;;;;5.08;78.96;101538.89;3400376;81;21026;-75
2021/12/17 13:04:31;;;;;;;10.90;4.42;;;;;;;4.99;78.89;101533.27;3395406;81;21448;-76
2021/12/17 13:09:29;;;;;;;15.23;5.78;;;;;;;4.91;78.95;101554.36;3373236;81;21889;-74
2021/12/17 13:14:24;;;;;;;10.80;4.67;;;;;;;4.82;78.98;101551.71;3391881;81;21043;-74
2021/12/17 13:24:36;;;;;;;12.37;6.33;;;;;;;4.68;79.04;101565.13;3386001;80;21629;-78
2021/12/17 13:29:33;;;;;;;8.85;4.83;;;;;;;4.59;79.12;101572.83;3489676;80;20971;-73
2021/12/17 13:34:32;;;;;;;10.88;5.00;;;;;;;4.55;79.15;101581.61;3448398;80;21591;-74
2021/12/17 13:39:32;;;;;;;10.35;4.40;;;;;;;4.53;79.29;101581.92;3450219;80;20998;-71
2021/12/17 13:44:49;;;;;;;10.03;4.42;;;;;;;4.50;79.04;101578.77;3417151;80;20978;-74
2021/12/17 13:49:48;;;;;;;10.78;5.25;;;;;;;4.49;79.35;101584.73;3397467;81;20966;-75
2021/12/17 13:54:40;;;;;;;14.00;4.85;;;;;;;4.45;79.15;101589.20;3494388;80;20983;-74
2021/12/17 13:59:36;;;;;;;9.88;4.25;;;;;;;4.43;79.22;101571.50;3391863;81;21248;-75
2021/12/17 14:04:28;;;;;;;8.48;4.75;;;;;;;4.43;79.33;101575.77;3413587;80;20927;-74
2021/12/17 14:09:21;;;;;;;9.68;4.85;;;;;;;4.40;79.18;101568.78;3478008;80;20911;-78
2021/12/17 14:14:27;;;;;;;12.90;7.37;;;;;;;4.37;79.25;101566.02;3452096;80;21456;-73
2021/12/17 14:19:36;;;;;;;7.62;5.30;;;;;;;4.36;79.20;101571.96;3430254;80;20943;-73
2021/12/17 14:24:31;;;;;;;11.40;5.47;;;;;;;4.34;79.22;101575.73;3472969;80;21022;-78
2021/12/17 14:29:27;;;;;;;10.70;5.97;;;;;;;4.35;79.26;101570.20;3492420;80;20946;-75
2021/12/17 14:34:18;;;;;;;10.37;4.90;;;;;;;4.33;79.15;101580.41;3416974;80;21456;-75
2021/12/17 14:39:17;;;;;;;15.38;6.60;;;;;;;4.32;79.29;101565.75;3406918;80;21019;-75
2021/12/17 14:44:31;;;;;;;15.78;8.18;;;;;;;4.32;79.46;101579.91;3418143;80;21251;-76
2021/12/17 15:04:30;;;;;;;13.68;5.78;;;;;;;4.30;79.56;101590.94;3410357;80;20991;-75
2021/12/17 15:09:21;;;;;;;12.60;6.17;;;;;;;4.31;79.66;101598.75;3380957;80;20951;-75
2021/12/17 15:14:12;;;;;;;7.97;5.65;;;;;;;4.31;79.59;101606.86;3429371;80;20927;-75
2021/12/17 15:19:03;;;;;;;15.32;5.80;;;;;;;4.31;79.57;101586.27;3387499;80;20998;-76
2021/12/17 15:23:54;;;;;;;10.82;6.05;;;;;;;4.31;79.57;101583.69;3452141;80;21014;-75
2021/12/17 15:28:46;;;;;;;9.95;4.25;;;;;;;4.33;79.61;101588.55;3467592;80;21020;-75
2021/12/17 15:33:37;;;;;;;12.45;5.47;;;;;;;4.35;79.51;101579.22;3425023;82;20936;-75
2021/12/17 15:38:29;;;;;;;9.60;6.30;;;;;;;4.34;79.48;101580.00;3420389;82;21152;-76
2021/12/17 15:43:22;;;;;;;9.88;4.70;;;;;;;4.35;79.63;101585.66;3433547;81;20951;-75
2021/12/17 15:48:17;;;;;;;7.15;4.33;;;;;;;4.34;79.55;101588.61;3425550;80;20943;-75
2021/12/17 15:53:10;;;;;;;13.88;5.20;;;;;;;4.34;79.64;101594.16;3415949;80;20965;-74
2021/12/17 15:58:03;;;;;;;9.88;4.12;;;;;;;4.32;79.68;101580.32;3390375;80;20888;-75
2021/12/17 16:02:55;;;;;;;12.40;6.05;;;;;;;4.31;79.56;101583.69;3371906;80;21457;-76
2021/12/17 16:07:48;;;;;;;10.05;5.45;;;;;;;4.31;79.65;101581.11;3402550;80;20959;-75
2021/12/17 16:18:28;;;;;;;8.98;4.50;;;;;;;4.33;79.66;101610.44;3430058;80;20959;-74
2021/12/17 16:23:07;;;;;;;10.40;4.53;;;;;;;4.35;79.82;101603.27;3436647;82;20954;-75
2021/12/17 16:27:58;;;;;;;13.30;5.90;;;;;;;4.34;79.76;101604.46;3445198;81;21130;-74
2021/12/17 16:32:51;;;;;;;6.90;3.77;;;;;;;4.30;79.86;101599.95;3407488;80;21479;-75
2021/12/17 16:37:43;;;;;;;8.43;3.12;;;;;;;4.27;79.81;101617.38;3431634;80;21462;-75
2021/12/17 16:42:36;;;;;;;9.60;4.75;;;;;;;4.21;79.75;101608.03;3417290;80;20948;-74
2021/12/17 16:47:32;;;;;;;7.85;4.22;;;;;;;4.12;80.01;101619.09;3345433;82;21544;-76
2021/12/17 16:52:31;;;;;;;9.13;3.72;;;;;;;4.05;80.30;101629.43;3409826;82;22787;-75
2021/12/17 16:57:24;;;;;;;6.50;3.70;;;;;;;3.98;80.57;101640.16;3393080;81;21446;-75
2021/12/17 17:02:15;;;;;;;10.18;4.22;;;;;;;3.98;80.84;101646.59;3383787;82;21539;-75
2021/12/17 17:07:07;;;;;;;12.60;5.03;;;;;;;3.96;80.98;101639.20;3363925;82;20977;-75
2021/12/17 17:12:04;;;;;;;14.95;6.55;;;;;;;3.90;80.99;101642.30;3405365;82;20984;-75
2021/12/17 17:16:55;;;;;;;9.08;4.08;;;;;;;3.83;81.04;101640.16;3405255;82;21432;-75
2021/12/17 17:21:48;;;;;;;8.30;3.83;;;;;;;3.78;81.11;101639.00;3367933;82;20970;-75
2021/12/17 17:26:39;;;;;;;7.30;4.35;;;;;;;3.71;81.22;101651.89;3387492;82;20948;-76
2021/12/17 17:31:31;;;;;;;6.95;4.55;;;;;;;3.67;81.18;101656.37;3404032;81;21566;-75
2021/12/17 17:36:23;;;;;;;13.62;6.85;;;;;;;3.60;81.31;101661.94;3401353;81;21021;-75
2021/12/17 17:41:17;;;;;;;9.70;5.33;;;;;;;3.63;81.40;101659.53;3397103;81;21461;-75
2021/12/17 17:46:09;;;;;;;10.82;3.65;;;;;;;3.65;81.42;101650.25;3389489;81;20983;-75
2021/12/17 17:51:01;;;;;;;25.72;10.43;;;;;;;3.70;81.43;101659.13;3364909;81;21063;-75
2021/12/17 17:55:52;;;;;;;15.95;6.37;;;;;;;3.73;81.38;101658.00;3420414;81;20980;-74
2021/12/17 18:00:45;;;;;;;8.05;5.37;;;;;;;3.77;81.34;101663.84;3368589;81;21601;-74
2021/12/17 18:05:37;;;;;;;13.25;6.90;;;;;;;3.84;81.32;101669.34;3391502;82;21406;-75
2021/12/17 18:10:28;;;;;;;10.68;5.28;;;;;;;3.90;81.29;101670.98;3378523;82;22181;-75
2021/12/17 18:15:23;;;;;;;10.85;4.72;;;;;;;3.93;81.25;101669.47;3435433;81;21035;-74
2021/12/17 18:20:19;;;;;;;10.05;5.65;;;;;;;3.97;81.24;101680.46;3436406;82;20968;-74
2021/12/17 18:25:11;;;;;;;16.50;6.85;;;;;;;3.99;81.42;101714.01;3382422;81;20955;-75
2021/12/17 18:30:10;;;;;;;11.03;5.05;;;;;;;3.93;81.50;101705.91;3385094;81;21535;-75
2021/12/17 18:35:03;;;;;;;11.03;5.03;;;;;;;3.82;81.55;101725.44;3424136;81;21000;-75
2021/12/17 18:39:55;;;;;;;16.95;7.17;;;;;;;3.80;81.54;101732.17;3445958;81;20960;-75
2021/12/17 18:44:47;;;;;;;24.50;9.58;;;;;;;3.79;81.51;101729.13;3404520;81;20968;-75
2021/12/17 18:49:38;;;;;;;9.83;3.85;;;;;;;3.72;81.47;101729.56;3459442;81;20983;-75
2021/12/17 18:54:29;;;;;;;9.45;5.97;;;;;;;3.65;81.31;101722.27;3448087;81;21077;-75
2021/12/17 18:59:21;;;;;;;9.10;3.50;;;;;;;3.64;81.41;101737.19;3436644;81;21065;-76
2021/12/17 19:04:13;;;;;;;6.20;3.25;;;;;;;3.61;81.09;101742.14;3444258;81;21011;-76
2021/12/17 19:09:04;;;;;;;9.18;4.25;;;;;;;3.57;80.73;101738.89;3393038;81;20951;-76
2021/12/17 19:13:56;;;;;;;13.60;7.42;;;;;;;3.46;80.79;101742.50;3390632;81;21524;-76
2021/12/17 19:23:39;;;;;;;12.82;6.05;;;;;;;3.20;81.06;101761.00;3417611;81;20932;-76
2021/12/17 19:28:34;;;;;;;16.67;6.05;;;;;;;3.13;81.27;101769.12;3420541;81;20991;-76
2021/12/17 19:33:26;;;;;;;10.23;4.67;;;;;;;3.11;81.56;101771.98;3390729;81;21544;-76
2021/12/17 19:38:17;;;;;;;8.93;2.95;;;;;;;3.14;81.74;101778.62;3414212;80;21531;-76
2021/12/17 19:43:09;;;;;;;8.55;4.62;;;;;;;3.16;81.84;101778.31;3449764;78;21065;-76
2021/12/17 19:48:14;;;;;;;5.33;3.12;;;;;;;3.17;82.00;101772.40;3495062;78;20971;-76
2021/12/17 19:52:54;;;;;;;18.90;7.10;;;;;;;3.17;82.04;101780.11;3490272;78;20950;-76
2021/12/17 19:57:47;;;;;;;13.62;5.25;;;;;;;3.18;82.10;101779.30;3484592;78;20998;-76
2021/12/17 20:02:44;;;;;;;12.60;6.58;;;;;;;3.17;82.13;101777.54;3482730;78;21264;-76
2021/12/17 20:07:33;;;;;;;12.23;5.65;;;;;;;3.17;82.16;101765.98;3464055;78;21802;-75
2021/12/17 20:12:26;;;;;;;12.03;5.67;;;;;;;3.19;82.20;101783.66;3471777;79;20911;-75
2021/12/17 20:17:20;;;;;;;15.55;8.40;;;;;;;3.23;82.17;101795.91;3446618;78;20955;-76
2021/12/17 20:22:13;;;;;;;11.80;5.55;;;;;;;3.24;82.16;101813.13;3407076;78;20966;-78
2021/12/17 20:27:08;;;;;;;18.48;8.15;;;;;;;3.28;82.07;101814.21;3509034;78;21003;-76
2021/12/17 20:32:01;;;;;;;15.80;7.50;;;;;;;3.23;81.89;101821.20;3514091;78;21686;-76
2021/12/17 20:36:54;;;;;;;15.23;5.90;;;;;;;3.16;81.93;101822.01;3453496;78;20940;-77
2021/12/17 20:41:48;;;;;;;14.78;7.55;;;;;;;3.00;81.79;101818.83;3467116;78;20942;-76
2021/12/17 20:46:48;;;;;;;24.50;11.55;;;;;;;2.89;81.98;101829.70;3515581;78;21512;-77
2021/12/17 20:51:46;;;;;;;24.90;9.38;;;;;;;2.76;81.98;101842.53;3533890;78;21975;-76
2021/12/17 20:56:39;;;;;;;33.80;13.83;;;;;;;2.63;82.05;101851.98;3510929;78;21991;-76
2021/12/17 21:01:33;;;;;;;15.30;6.97;;;;;;;2.53;82.20;101850.85;3525209;78;21076;-77
2021/12/17 21:06:27;;;;;;;26.68;11.30;;;;;;;2.45;82.23;101860.98;3526820;79;21534;-75
2021/12/17 21:11:19;;;;;;;18.62;7.78;;;;;;;2.35;82.31;101861.16;3519644;78;20944;-76
2021/12/17 21:16:13;;;;;;;16.52;7.75;;;;;;;2.26;82.35;101858.45;3453706;78;20923;-76
2021/12/17 21:21:06;;;;;;;20.82;9.58;;;;;;;2.19;82.51;101866.91;3497946;78;48438;-76
2021/12/17 21:25:58;;;;;;;28.45;12.82;;;;;;;2.14;82.63;101874.28;3515242;78;20967;-77
2021/12/17 21:30:52;;;;;;;28.70;12.58;;;;;;;2.07;82.66;101879.37;3423612;78;21456;-75
2021/12/17 21:35:44;;;;;;;16.30;7.87;;;;;;;2.00;82.61;101883.97;3461619;78;22319;-76
2021/12/17 21:40:43;;;;;;;16.35;7.17;;;;;;;1.93;82.60;101889.05;3496655;78;20967;-76
2021/12/17 21:45:34;;;;;;;14.70;7.85;;;;;;;1.90;82.86;101893.98;3509181;79;21460;-76
2021/12/17 21:50:29;;;;;;;14.25;6.22;;;;;;;1.95;83.01;101907.12;3502986;79;21472;-76
2021/12/17 21:55:23;;;;;;;19.98;9.30;;;;;;;2.04;83.04;101920.22;3529574;79;22276;-76
2021/12/17 22:00:23;;;;;;;27.82;11.28;;;;;;;2.14;83.09;101920.87;3521966;79;20963;-76
2021/12/17 22:05:16;;;;;;;22.58;9.03;;;;;;;2.24;83.05;101931.87;3497258;78;20950;-76
2021/12/17 22:10:08;;;;;;;17.67;7.17;;;;;;;2.36;83.03;101933.51;3508989;78;22126;-76
2021/12/17 22:15:00;;;;;;;22.42;9.58;;;;;;;2.45;83.13;101937.99;3553212;78;22050;-76
2021/12/17 22:19:57;;;;;;;13.65;5.30;;;;;;;2.57;83.01;101926.41;3501982;78;20962;-77
2021/12/17 22:24:48;;;;;;;10.45;4.42;;;;;;;2.64;82.82;101924.76;3553275;78;21017;-76
2021/12/17 22:29:41;;;;;;;10.28;4.55;;;;;;;2.74;82.80;101932.72;3510282;78;21288;-76
2021/12/17 22:34:32;;;;;;;14.05;6.12;;;;;;;2.80;82.62;101934.40;3546576;78;22030;-76
2021/12/17 22:39:24;;;;;;;10.72;4.55;;;;;;;2.86;82.52;101940.86;3522169;78;20970;-75
2021/12/17 22:44:18;;;;;;;11.20;4.65;;;;;;;2.90;82.46;101934.25;3521012;78;21006;-76
2021/12/17 22:49:10;;;;;;;11.53;4.92;;;;;;;2.95;82.43;101931.59;3498437;78;20970;-76
2021/12/17 22:54:05;;;;;;;11.15;5.22;;;;;;;2.99;82.41;101923.30;3536523;78;20982;-76
2021/12/17 22:58:57;;;;;;;11.20;4.97;;;;;;;3.01;82.36;101919.55;3487159;78;22200;-76
2021/12/17 23:04:07;;;;;;;11.15;4.15;;;;;;;3.06;82.42;101931.03;3539044;78;20948;-76
2021/12/17 23:13:51;;;;;;;8.45;4.15;;;;;;;3.12;82.36;101953.67;3583724;78;21085;-76
2021/12/17 23:18:42;;;;;;;9.00;4.22;;;;;;;3.15;82.32;101958.99;3543093;78;20994;-76
2021/12/17 23:23:33;;;;;;;11.25;4.67;;;;;;;3.16;82.29;101955.64;3514650;78;21476;-76
2021/12/17 23:28:25;;;;;;;13.43;4.62;;;;;;;3.18;82.25;101948.92;3525665;78;20991;-76
2021/12/17 23:38:20;;;;;;;14.70;3.55;;;;;;;3.21;82.08;101947.85;3506041;79;22017;-76
2021/12/17 23:43:11;;;;;;;8.75;3.47;;;;;;;3.20;82.04;101952.48;3500389;79;20948;-76
2021/12/17 23:48:02;;;;;;;7.95;2.65;;;;;;;3.21;82.04;101943.59;3457246;78;21027;-77
2021/12/17 23:52:53;;;;;;;4.92;2.12;;;;;;;3.23;81.90;101941.13;3510000;78;21013;-76
2021/12/17 23:57:45;;;;;;;7.58;1.98;;;;;;;3.24;81.82;101946.78;3415591;79;22515;-76
